Time;durP1;ratioP1;P1;durP2;ratioP2;P2;SDS_P1;SDS_P2;PMS_P1;PMS_P2;Temp;Humidity;BMP_temperature;BMP_pressure;BME280_temperature;BME280_humidity;BME280_pressure;Samples;Min_cycle;Max_cycle;Signal;HPM_P1;HPM_P2
2022/06/09 00:00:53;;;;;;;14.80;3.43;;;;;;;;;;5073877;28;20443;-76
2022/06/09 00:03:24;;;;;;;13.23;3.00;;;;;;;;;;5073758;28;20970;-76
2022/06/09 00:05:53;;;;;;;13.00;2.63;;;;;;;;;;5074080;28;20804;-76
2022/06/09 00:08:21;;;;;;;13.53;2.97;;;;;;;;;;5073707;28;20486;-77
2022/06/09 00:10:51;;;;;;;14.10;3.10;;;;;;;;;;5073653;28;20827;-76
2022/06/09 00:13:19;;;;;;;13.70;2.67;;;;;;;;;;5073771;28;20434;-76
2022/06/09 00:15:46;;;;;;;14.50;2.30;;;;;;;;;;5073662;28;20478;-76
2022/06/09 00:18:15;;;;;;;12.13;2.30;;;;;;;;;;5073690;28;20450;-76
2022/06/09 00:20:42;;;;;;;15.80;4.27;;;;;;;;;;5073617;28;20500;-76
2022/06/09 00:23:16;;;;;;;14.10;2.93;;;;;;;;;;5073757;28;20446;-76
2022/06/09 00:25:44;;;;;;;15.37;3.43;;;;;;;;;;5073615;28;20978;-76
2022/06/09 00:28:11;;;;;;;12.60;3.00;;;;;;;;;;5073493;28;20485;-76
2022/06/09 00:30:39;;;;;;;17.90;2.80;;;;;;;;;;5073225;28;20450;-77
2022/06/09 00:33:06;;;;;;;12.47;2.73;;;;;;;;;;5073741;28;20443;-76
2022/06/09 00:35:34;;;;;;;14.00;2.80;;;;;;;;;;5073502;28;20508;-76
2022/06/09 00:38:01;;;;;;;12.87;3.30;;;;;;;;;;5072841;28;20443;-76
2022/06/09 00:40:31;;;;;;;13.90;2.70;;;;;;;;;;5073412;28;20465;-76
2022/06/09 00:42:59;;;;;;;12.93;2.80;;;;;;;;;;5073003;28;20829;-76
2022/06/09 00:45:32;;;;;;;14.37;2.90;;;;;;;;;;5073366;28;20461;-76
2022/06/09 00:48:07;;;;;;;12.97;2.50;;;;;;;;;;5073462;28;20573;-76
2022/06/09 00:50:35;;;;;;;15.33;3.17;;;;;;;;;;5073290;28;20438;-76
2022/06/09 00:53:05;;;;;;;14.20;3.23;;;;;;;;;;5073055;28;20950;-76
2022/06/09 00:55:36;;;;;;;13.00;2.70;;;;;;;;;;5073007;28;20442;-76
2022/06/09 00:58:06;;;;;;;14.10;3.07;;;;;;;;;;5073251;28;20443;-76
2022/06/09 01:00:37;;;;;;;13.60;3.20;;;;;;;;;;5073096;28;20431;-76
2022/06/09 01:03:04;;;;;;;16.93;2.83;;;;;;;;;;5072846;28;20435;-76
2022/06/09 01:05:33;;;;;;;13.30;3.33;;;;;;;;;;5072836;28;20466;-77
2022/06/09 01:08:02;;;;;;;12.87;2.57;;;;;;;;;;5072635;28;21055;-77
2022/06/09 01:10:30;;;;;;;14.00;2.70;;;;;;;;;;5072672;28;20446;-76
2022/06/09 01:13:00;;;;;;;19.00;3.20;;;;;;;;;;5072710;28;20436;-76
2022/06/09 01:15:31;;;;;;;13.53;3.47;;;;;;;;;;5072666;28;20456;-76
2022/06/09 01:18:03;;;;;;;13.80;3.43;;;;;;;;;;5072634;28;20449;-76
2022/06/09 01:20:36;;;;;;;15.70;3.43;;;;;;;;;;5072546;28;20441;-76
2022/06/09 01:23:21;;;;;;;19.80;3.07;;;;;;;;;;5072431;28;20434;-76
2022/06/09 01:26:05;;;;;;;15.00;2.90;;;;;;;;;;5072596;28;20456;-76
2022/06/09 01:28:48;;;;;;;13.90;3.70;;;;;;;;;;5072379;28;20538;-76
2022/06/09 01:31:20;;;;;;;13.50;3.20;;;;;;;;;;5072609;28;20450;-76
2022/06/09 01:33:52;;;;;;;12.40;2.83;;;;;;;;;;5072292;28;20445;-76
2022/06/09 01:36:23;;;;;;;15.83;3.33;;;;;;;;;;5072208;28;20989;-76
2022/06/09 01:38:52;;;;;;;15.40;3.60;;;;;;;;;;5072004;28;20453;-76
2022/06/09 01:41:20;;;;;;;17.03;3.50;;;;;;;;;;5071971;28;20451;-76
2022/06/09 01:43:49;;;;;;;13.23;3.23;;;;;;;;;;5072281;28;20450;-76
2022/06/09 01:46:20;;;;;;;13.93;3.30;;;;;;;;;;5071969;28;20443;-76
2022/06/09 01:48:51;;;;;;;13.30;3.17;;;;;;;;;;5071528;28;20994;-76
2022/06/09 01:51:20;;;;;;;13.60;3.63;;;;;;;;;;5071430;28;20440;-76
2022/06/09 01:53:50;;;;;;;14.17;2.93;;;;;;;;;;5071737;28;20452;-76
2022/06/09 01:56:20;;;;;;;15.07;3.40;;;;;;;;;;5072067;28;20508;-76
2022/06/09 01:58:51;;;;;;;15.40;4.20;;;;;;;;;;5071557;28;20454;-76
2022/06/09 02:01:22;;;;;;;14.97;3.00;;;;;;;;;;5071787;28;20514;-76
2022/06/09 02:03:51;;;;;;;14.57;2.57;;;;;;;;;;5071666;28;20450;-76
2022/06/09 02:06:19;;;;;;;20.93;3.23;;;;;;;;;;5071425;28;20466;-76
2022/06/09 02:08:47;;;;;;;14.50;3.60;;;;;;;;;;5071466;28;20486;-76
2022/06/09 02:11:15;;;;;;;13.20;2.93;;;;;;;;;;5071583;28;20814;-76
2022/06/09 02:13:44;;;;;;;14.20;3.30;;;;;;;;;;5071432;28;20971;-76
2022/06/09 02:16:14;;;;;;;14.63;3.00;;;;;;;;;;5071550;28;20478;-76
2022/06/09 02:18:45;;;;;;;12.43;2.90;;;;;;;;;;5071136;28;20446;-76
2022/06/09 02:21:13;;;;;;;14.83;2.87;;;;;;;;;;5071642;28;20453;-76
2022/06/09 02:23:41;;;;;;;11.77;2.40;;;;;;;;;;5071272;28;20825;-76
2022/06/09 02:26:08;;;;;;;15.23;3.13;;;;;;;;;;5071436;28;20449;-76
2022/06/09 02:28:36;;;;;;;17.43;3.53;;;;;;;;;;5071233;28;20498;-76
2022/06/09 02:31:04;;;;;;;14.23;3.23;;;;;;;;;;5071232;28;20439;-76
2022/06/09 02:33:32;;;;;;;13.83;3.13;;;;;;;;;;5071227;28;20435;-76
2022/06/09 02:36:01;;;;;;;17.63;2.93;;;;;;;;;;5071378;28;20824;-76
2022/06/09 02:38:28;;;;;;;15.10;3.33;;;;;;;;;;5071294;28;20439;-76
2022/06/09 02:40:56;;;;;;;20.60;5.00;;;;;;;;;;5070778;28;20507;-76
2022/06/09 02:43:24;;;;;;;13.50;3.63;;;;;;;;;;5071000;28;20595;-76
2022/06/09 02:45:51;;;;;;;16.43;3.57;;;;;;;;;;5070983;28;20449;-76
2022/06/09 02:48:19;;;;;;;14.63;3.93;;;;;;;;;;5070885;28;20504;-76
2022/06/09 02:50:48;;;;;;;16.40;4.23;;;;;;;;;;5070791;28;20474;-76
2022/06/09 02:53:17;;;;;;;17.93;4.20;;;;;;;;;;5070942;28;20450;-76
2022/06/09 02:55:44;;;;;;;14.47;3.50;;;;;;;;;;5071032;28;20439;-76
2022/06/09 02:58:12;;;;;;;14.00;3.80;;;;;;;;;;5070876;28;20439;-76
2022/06/09 03:00:40;;;;;;;20.50;3.70;;;;;;;;;;5070442;28;20831;-76
2022/06/09 03:03:08;;;;;;;14.50;3.20;;;;;;;;;;5070975;28;20449;-77
2022/06/09 03:05:37;;;;;;;13.20;3.10;;;;;;;;;;5070767;28;20467;-76
2022/06/09 03:08:07;;;;;;;17.83;3.27;;;;;;;;;;5070897;28;20439;-76
2022/06/09 03:10:36;;;;;;;14.50;3.10;;;;;;;;;;5070721;28;20491;-76
2022/06/09 03:13:03;;;;;;;13.30;3.50;;;;;;;;;;5070706;28;20450;-76
2022/06/09 03:15:31;;;;;;;15.53;3.30;;;;;;;;;;5070520;28;21027;-76
2022/06/09 03:17:58;;;;;;;13.53;3.33;;;;;;;;;;5070716;28;20439;-76
2022/06/09 03:20:27;;;;;;;16.53;3.40;;;;;;;;;;5070631;28;20430;-76
2022/06/09 03:22:54;;;;;;;17.67;3.60;;;;;;;;;;5070491;28;20955;-76
2022/06/09 03:25:22;;;;;;;14.17;3.13;;;;;;;;;;5070606;28;20504;-76
2022/06/09 03:27:51;;;;;;;16.43;3.87;;;;;;;;;;5070513;28;20447;-76
2022/06/09 03:30:19;;;;;;;14.00;3.70;;;;;;;;;;5070764;28;20478;-76
2022/06/09 03:32:46;;;;;;;13.13;3.10;;;;;;;;;;5070501;28;20439;-77
2022/06/09 03:35:14;;;;;;;14.77;3.97;;;;;;;;;;5070484;28;20439;-76
2022/06/09 03:37:41;;;;;;;14.03;3.23;;;;;;;;;;5070459;28;20447;-77
2022/06/09 03:40:10;;;;;;;12.30;3.03;;;;;;;;;;5070435;28;20447;-76
2022/06/09 03:42:38;;;;;;;17.00;4.40;;;;;;;;;;5070532;28;20447;-77
2022/06/09 03:45:07;;;;;;;15.30;3.30;;;;;;;;;;5070476;28;20465;-76
2022/06/09 03:47:35;;;;;;;12.90;4.13;;;;;;;;;;5070341;28;20446;-76
2022/06/09 03:50:02;;;;;;;15.40;4.10;;;;;;;;;;5070155;28;20483;-76
2022/06/09 03:52:29;;;;;;;13.73;3.60;;;;;;;;;;5070073;28;20445;-76
2022/06/09 03:54:57;;;;;;;13.23;3.60;;;;;;;;;;5069949;28;20967;-76
2022/06/09 04:12:50;;;;;;;14.80;3.27;;;;;;;;;;5130067;27;20573;-76
2022/06/09 04:15:18;;;;;;;15.93;3.90;;;;;;;;;;5129574;27;20441;-76
2022/06/09 04:17:45;;;;;;;13.60;2.63;;;;;;;;;;5129781;27;20449;-77
2022/06/09 04:20:14;;;;;;;15.40;2.60;;;;;;;;;;5128588;27;20433;-75
2022/06/09 04:22:41;;;;;;;13.30;3.17;;;;;;;;;;5129798;27;20209;-83
2022/06/09 04:25:09;;;;;;;16.57;4.20;;;;;;;;;;5125588;27;20459;-80
2022/06/09 04:27:36;;;;;;;15.03;3.23;;;;;;;;;;5129035;27;20468;-82
2022/06/09 04:30:07;;;;;;;14.73;2.47;;;;;;;;;;5129063;27;20475;-82
2022/06/09 04:32:34;;;;;;;15.77;2.50;;;;;;;;;;5128548;28;20471;-81
2022/06/09 04:35:01;;;;;;;14.67;3.07;;;;;;;;;;5128958;27;20479;-83
2022/06/09 04:40:11;;;;;;;13.67;2.57;;;;;;;;;;5128055;27;20490;-82
2022/06/09 04:42:38;;;;;;;12.80;2.30;;;;;;;;;;5128991;27;20458;-87
2022/06/09 04:45:08;;;;;;;15.40;3.67;;;;;;;;;;5129061;27;20469;-80
2022/06/09 04:47:36;;;;;;;15.43;3.33;;;;;;;;;;5129002;28;20471;-78
2022/06/09 04:50:03;;;;;;;14.50;2.47;;;;;;;;;;5129007;27;20472;-83
2022/06/09 04:52:31;;;;;;;13.83;2.57;;;;;;;;;;5128847;27;20464;-84
2022/06/09 04:54:58;;;;;;;14.60;3.60;;;;;;;;;;5128738;27;20472;-78
2022/06/09 04:57:26;;;;;;;16.57;3.00;;;;;;;;;;5128807;27;20454;-76
2022/06/09 04:59:53;;;;;;;13.57;3.40;;;;;;;;;;5127970;27;20440;-80
2022/06/09 05:02:23;;;;;;;13.30;3.23;;;;;;;;;;5109715;27;20501;-81
2022/06/09 05:04:50;;;;;;;12.60;2.83;;;;;;;;;;5107872;28;20476;-77
2022/06/09 05:07:17;;;;;;;14.07;3.47;;;;;;;;;;5107966;28;20444;-78
2022/06/09 05:09:45;;;;;;;14.77;2.93;;;;;;;;;;5108640;28;20442;-78
2022/06/09 05:12:12;;;;;;;15.70;3.50;;;;;;;;;;5119460;28;20842;-78
2022/06/09 05:14:40;;;;;;;13.00;3.10;;;;;;;;;;5114810;28;20812;-78
2022/06/09 05:17:07;;;;;;;17.43;2.83;;;;;;;;;;5115232;28;20460;-78
2022/06/09 05:19:37;;;;;;;13.40;2.63;;;;;;;;;;5115197;28;20980;-78
2022/06/09 05:22:04;;;;;;;14.37;3.27;;;;;;;;;;5114968;28;20828;-77
2022/06/09 05:24:32;;;;;;;12.60;2.53;;;;;;;;;;5115067;28;20440;-78
2022/06/09 05:26:59;;;;;;;12.90;2.90;;;;;;;;;;5113193;28;20441;-78
2022/06/09 05:29:27;;;;;;;17.03;3.63;;;;;;;;;;5112833;28;20448;-78
2022/06/09 05:31:54;;;;;;;15.90;3.80;;;;;;;;;;5113134;28;20456;-78
2022/06/09 05:34:22;;;;;;;12.70;2.83;;;;;;;;;;5113014;28;20528;-79
2022/06/09 05:36:51;;;;;;;16.00;3.20;;;;;;;;;;5113004;28;20437;-78
2022/06/09 05:44:52;;;;;;;15.77;3.23;;;;;;;;;;5114809;28;20420;-78
2022/06/09 05:47:21;;;;;;;13.07;2.80;;;;;;;;;;5114686;28;20437;-78
2022/06/09 05:49:48;;;;;;;14.30;2.90;;;;;;;;;;5114693;28;20441;-78
2022/06/09 05:52:19;;;;;;;15.70;3.57;;;;;;;;;;5114554;28;20456;-78
2022/06/09 05:54:46;;;;;;;15.73;3.40;;;;;;;;;;5114788;28;20440;-78
2022/06/09 05:57:14;;;;;;;16.40;3.20;;;;;;;;;;5114367;28;20444;-78
2022/06/09 05:59:41;;;;;;;15.40;2.70;;;;;;;;;;5114422;28;20465;-78
2022/06/09 06:02:09;;;;;;;15.37;2.80;;;;;;;;;;5114152;28;20905;-78
2022/06/09 06:04:36;;;;;;;13.20;3.07;;;;;;;;;;5114539;28;20434;-78
2022/06/09 06:07:04;;;;;;;15.60;2.40;;;;;;;;;;5114193;28;20456;-78
2022/06/09 06:09:33;;;;;;;12.90;2.67;;;;;;;;;;5114123;28;21030;-78
2022/06/09 06:12:03;;;;;;;12.37;2.60;;;;;;;;;;5113985;28;20493;-78
2022/06/09 06:14:31;;;;;;;13.27;2.90;;;;;;;;;;5114254;28;20445;-78
2022/06/09 06:16:59;;;;;;;14.80;2.90;;;;;;;;;;5114149;28;20440;-79
2022/06/09 06:19:26;;;;;;;13.73;2.87;;;;;;;;;;5113960;28;20445;-78
2022/06/09 06:21:54;;;;;;;13.90;3.07;;;;;;;;;;5113847;28;20508;-78
2022/06/09 06:24:23;;;;;;;14.23;3.00;;;;;;;;;;5113123;28;20442;-79
2022/06/09 06:26:53;;;;;;;12.47;2.77;;;;;;;;;;5113865;28;20814;-78
2022/06/09 06:29:22;;;;;;;14.93;3.17;;;;;;;;;;5113427;28;20962;-78
2022/06/09 06:31:49;;;;;;;14.67;3.27;;;;;;;;;;5113750;28;20953;-78
2022/06/09 06:34:17;;;;;;;13.07;2.70;;;;;;;;;;5113815;28;20445;-79
2022/06/09 06:36:44;;;;;;;12.30;3.07;;;;;;;;;;5113663;28;20440;-79
2022/06/09 06:39:12;;;;;;;15.47;3.43;;;;;;;;;;5113395;28;20433;-78
2022/06/09 06:41:39;;;;;;;13.10;3.23;;;;;;;;;;5113460;28;20481;-77
2022/06/09 06:44:09;;;;;;;12.60;2.90;;;;;;;;;;5113564;28;20450;-79
2022/06/09 06:46:36;;;;;;;14.57;3.20;;;;;;;;;;5113512;28;20511;-78
2022/06/09 06:49:04;;;;;;;13.50;2.60;;;;;;;;;;5113058;28;20445;-79
2022/06/09 06:51:32;;;;;;;13.60;2.63;;;;;;;;;;5113723;28;20536;-78
2022/06/09 06:53:59;;;;;;;13.40;2.70;;;;;;;;;;5113408;28;20985;-77
2022/06/09 06:56:27;;;;;;;13.23;3.00;;;;;;;;;;5113237;28;20449;-79
2022/06/09 06:58:54;;;;;;;16.00;2.67;;;;;;;;;;5113593;28;20459;-78
2022/06/09 07:01:24;;;;;;;13.57;2.30;;;;;;;;;;5112880;28;21057;-77
2022/06/09 07:03:52;;;;;;;13.93;2.90;;;;;;;;;;5113451;28;20468;-78
2022/06/09 07:06:19;;;;;;;13.07;2.47;;;;;;;;;;5113084;28;20445;-78
2022/06/09 07:08:47;;;;;;;14.93;3.60;;;;;;;;;;5112901;28;21006;-77
2022/06/09 07:11:14;;;;;;;14.20;3.10;;;;;;;;;;5112685;28;20480;-77
2022/06/09 07:13:42;;;;;;;14.33;2.80;;;;;;;;;;5113195;28;20452;-77
2022/06/09 07:16:12;;;;;;;15.30;3.13;;;;;;;;;;5112893;28;20988;-78
2022/06/09 07:18:41;;;;;;;15.27;2.63;;;;;;;;;;5112905;28;20524;-77
2022/06/09 07:21:09;;;;;;;14.40;2.90;;;;;;;;;;5112581;28;20445;-78
2022/06/09 07:23:36;;;;;;;12.77;2.50;;;;;;;;;;5112802;28;20524;-78
2022/06/09 07:26:05;;;;;;;13.40;2.40;;;;;;;;;;5112938;28;20506;-76
2022/06/09 07:28:33;;;;;;;14.70;2.87;;;;;;;;;;5113092;28;20434;-77
2022/06/09 07:31:01;;;;;;;12.50;2.63;;;;;;;;;;5112568;28;20561;-78
2022/06/09 07:33:33;;;;;;;12.97;2.67;;;;;;;;;;5112599;28;20501;-77
2022/06/09 07:36:04;;;;;;;12.67;2.50;;;;;;;;;;5112373;28;20498;-76
2022/06/09 07:38:33;;;;;;;15.27;2.83;;;;;;;;;;5112648;28;20445;-77
2022/06/09 07:41:01;;;;;;;14.43;2.97;;;;;;;;;;5112280;28;20441;-76
2022/06/09 07:43:28;;;;;;;13.27;2.57;;;;;;;;;;5112536;28;20499;-76
2022/06/09 07:45:56;;;;;;;13.10;3.03;;;;;;;;;;5112525;28;20448;-78
2022/06/09 07:48:23;;;;;;;13.37;2.33;;;;;;;;;;5112315;28;20448;-77
2022/06/09 07:50:51;;;;;;;14.57;2.80;;;;;;;;;;5112328;28;20480;-77
2022/06/09 07:53:22;;;;;;;12.37;1.97;;;;;;;;;;5112199;28;20464;-77
2022/06/09 07:55:50;;;;;;;13.43;2.10;;;;;;;;;;5112899;28;20434;-77
2022/06/09 07:58:19;;;;;;;12.90;2.30;;;;;;;;;;5112656;28;20809;-77
2022/06/09 08:00:47;;;;;;;12.63;2.00;;;;;;;;;;5111877;28;20464;-76
2022/06/09 08:03:17;;;;;;;12.73;2.60;;;;;;;;;;5112113;28;20484;-77
2022/06/09 08:05:45;;;;;;;17.70;2.50;;;;;;;;;;5112451;28;20525;-77
2022/06/09 08:08:12;;;;;;;12.80;2.53;;;;;;;;;;5112851;28;20471;-76
2022/06/09 08:10:42;;;;;;;12.77;2.70;;;;;;;;;;5112651;28;20444;-76
2022/06/09 08:13:10;;;;;;;13.90;2.90;;;;;;;;;;5112034;28;20445;-75
2022/06/09 08:15:38;;;;;;;13.70;2.20;;;;;;;;;;5112083;28;20441;-76
2022/06/09 08:18:06;;;;;;;15.40;2.20;;;;;;;;;;5112110;28;20490;-76
2022/06/09 08:20:36;;;;;;;12.60;2.63;;;;;;;;;;5112061;28;20453;-76
2022/06/09 08:23:05;;;;;;;12.93;2.23;;;;;;;;;;5111913;28;20488;-77
2022/06/09 08:25:33;;;;;;;13.00;2.50;;;;;;;;;;5112142;28;20438;-75
2022/06/09 08:28:03;;;;;;;17.43;2.50;;;;;;;;;;5111967;28;20447;-75
2022/06/09 08:30:31;;;;;;;13.60;2.10;;;;;;;;;;5112133;28;20552;-76
2022/06/09 08:32:58;;;;;;;13.23;2.10;;;;;;;;;;5112023;28;20455;-76
2022/06/09 08:35:26;;;;;;;14.40;2.40;;;;;;;;;;5112093;28;20456;-77
2022/06/09 08:37:54;;;;;;;15.20;2.10;;;;;;;;;;5111976;28;20438;-76
2022/06/09 08:40:23;;;;;;;13.60;2.30;;;;;;;;;;5111900;28;20948;-76
2022/06/09 08:43:02;;;;;;;12.50;2.20;;;;;;;;;;5111934;28;20480;-76
2022/06/09 08:45:34;;;;;;;15.53;2.93;;;;;;;;;;5112020;28;20452;-76
2022/06/09 08:48:02;;;;;;;12.80;2.20;;;;;;;;;;5114093;28;20995;-76
2022/06/09 08:50:31;;;;;;;13.70;2.30;;;;;;;;;;5115799;28;20445;-76
2022/06/09 08:53:04;;;;;;;12.77;2.53;;;;;;;;;;5115530;28;20443;-77
2022/06/09 08:55:37;;;;;;;14.53;2.50;;;;;;;;;;5116107;28;20529;-76
2022/06/09 08:58:07;;;;;;;14.90;2.10;;;;;;;;;;5115532;28;20442;-76
2022/06/09 09:00:40;;;;;;;13.93;2.63;;;;;;;;;;5115228;28;20519;-76
2022/06/09 09:03:09;;;;;;;12.93;2.40;;;;;;;;;;5115358;28;20493;-76
2022/06/09 09:05:40;;;;;;;13.10;2.40;;;;;;;;;;5115376;28;20445;-77
2022/06/09 09:08:08;;;;;;;13.20;2.20;;;;;;;;;;5115520;28;20819;-75
2022/06/09 09:10:42;;;;;;;13.03;2.50;;;;;;;;;;5115154;28;20458;-76
2022/06/09 09:13:17;;;;;;;15.47;2.77;;;;;;;;;;5115467;28;20435;-76
2022/06/09 09:15:51;;;;;;;12.67;2.33;;;;;;;;;;5115160;28;20849;-76
2022/06/09 09:18:26;;;;;;;12.60;2.30;;;;;;;;;;5115289;28;20445;-77
2022/06/09 09:20:59;;;;;;;12.77;1.90;;;;;;;;;;5115173;28;20532;-76
2022/06/09 09:23:29;;;;;;;11.87;2.00;;;;;;;;;;5115204;28;20829;-76
2022/06/09 09:25:58;;;;;;;15.23;2.50;;;;;;;;;;5115032;28;20938;-76
2022/06/09 09:28:27;;;;;;;12.30;1.93;;;;;;;;;;5114865;28;20467;-75
2022/06/09 09:31:00;;;;;;;15.90;2.13;;;;;;;;;;5115317;28;20458;-75
2022/06/09 09:33:29;;;;;;;12.83;2.20;;;;;;;;;;5114866;28;20439;-77
2022/06/09 09:35:57;;;;;;;19.97;2.33;;;;;;;;;;5115057;28;20443;-75
2022/06/09 09:38:26;;;;;;;13.77;2.37;;;;;;;;;;5114750;28;20928;-76
2022/06/09 09:40:59;;;;;;;12.80;2.30;;;;;;;;;;5114638;28;20443;-76
2022/06/09 09:43:34;;;;;;;13.63;2.50;;;;;;;;;;5114620;28;20483;-75
2022/06/09 09:46:04;;;;;;;12.40;2.00;;;;;;;;;;5114971;28;20460;-76
2022/06/09 09:48:34;;;;;;;13.70;2.40;;;;;;;;;;5114662;28;20447;-75
2022/06/09 09:51:05;;;;;;;12.80;2.37;;;;;;;;;;5114604;28;20441;-75
2022/06/09 09:53:34;;;;;;;12.70;2.50;;;;;;;;;;5114445;28;20441;-76
2022/06/09 09:56:02;;;;;;;13.00;2.23;;;;;;;;;;5114393;28;20452;-76
2022/06/09 09:58:33;;;;;;;16.90;2.40;;;;;;;;;;5114281;28;20968;-75
2022/06/09 10:01:02;;;;;;;13.53;2.40;;;;;;;;;;5113951;28;20502;-76
2022/06/09 10:09:13;;;;;;;13.40;2.20;;;;;;;;;;5114096;28;20460;-77
2022/06/09 10:11:55;;;;;;;12.70;2.20;;;;;;;;;;5114086;28;20477;-76
2022/06/09 10:14:43;;;;;;;12.03;2.00;;;;;;;;;;5114088;28;20449;-76
2022/06/09 10:17:26;;;;;;;13.27;2.43;;;;;;;;;;5114203;28;20439;-76
2022/06/09 10:19:58;;;;;;;13.07;1.90;;;;;;;;;;5114062;28;20445;-76
2022/06/09 10:22:28;;;;;;;13.30;2.03;;;;;;;;;;5114033;28;20478;-76
2022/06/09 10:24:58;;;;;;;14.70;2.33;;;;;;;;;;5113858;28;20946;-76
2022/06/09 10:27:28;;;;;;;13.90;2.07;;;;;;;;;;5114100;28;20825;-77
2022/06/09 10:30:01;;;;;;;12.20;2.07;;;;;;;;;;5114146;28;20448;-77
2022/06/09 10:32:30;;;;;;;12.60;2.33;;;;;;;;;;5113913;28;20931;-77
2022/06/09 10:35:03;;;;;;;12.60;2.30;;;;;;;;;;5113677;28;20448;-76
2022/06/09 10:37:37;;;;;;;16.43;2.10;;;;;;;;;;5114049;28;20448;-78
2022/06/09 10:40:07;;;;;;;12.77;2.40;;;;;;;;;;5113545;28;20433;-76
2022/06/09 10:42:38;;;;;;;13.37;2.37;;;;;;;;;;5113639;28;20484;-76
2022/06/09 10:45:17;;;;;;;14.00;3.40;;;;;;;;;;5113384;28;20475;-76
2022/06/09 10:56:15;;;;;;;14.50;2.27;;;;;;;;;;5113428;28;20817;-76
2022/06/09 10:58:46;;;;;;;14.37;2.07;;;;;;;;;;5113431;28;20425;-77
2022/06/09 11:01:19;;;;;;;20.03;2.57;;;;;;;;;;5112510;28;21051;-76
2022/06/09 11:03:49;;;;;;;17.33;2.30;;;;;;;;;;5113377;28;21070;-76
2022/06/09 11:06:23;;;;;;;15.70;2.37;;;;;;;;;;5112958;28;20453;-76
2022/06/09 11:08:57;;;;;;;12.70;2.00;;;;;;;;;;5113505;28;20461;-76
2022/06/09 11:11:28;;;;;;;17.40;2.80;;;;;;;;;;5112645;28;20923;-77
2022/06/09 11:14:00;;;;;;;15.23;4.20;;;;;;;;;;5113387;28;20446;-76
2022/06/09 11:16:31;;;;;;;15.23;2.83;;;;;;;;;;5113018;28;20451;-76
2022/06/09 11:19:09;;;;;;;15.10;2.33;;;;;;;;;;5112737;28;20433;-76
2022/06/09 11:21:42;;;;;;;13.20;2.43;;;;;;;;;;5112735;28;20872;-76
2022/06/09 11:24:17;;;;;;;11.97;1.93;;;;;;;;;;5112983;28;20469;-76
2022/06/09 11:26:48;;;;;;;16.37;2.40;;;;;;;;;;5113065;28;20445;-76
2022/06/09 11:29:23;;;;;;;13.07;2.40;;;;;;;;;;5112540;28;20960;-77
2022/06/09 11:31:54;;;;;;;17.03;2.40;;;;;;;;;;5112666;28;20434;-76
2022/06/09 11:34:30;;;;;;;14.53;3.07;;;;;;;;;;5112718;28;20960;-76
2022/06/09 11:37:04;;;;;;;11.27;1.73;;;;;;;;;;5112537;28;20445;-75
2022/06/09 11:39:41;;;;;;;12.20;2.60;;;;;;;;;;5112599;28;20522;-76
2022/06/09 11:42:13;;;;;;;12.90;2.20;;;;;;;;;;5112466;28;21010;-77
2022/06/09 11:44:41;;;;;;;12.57;2.07;;;;;;;;;;5112791;28;20461;-76
2022/06/09 11:47:13;;;;;;;12.73;2.13;;;;;;;;;;5112373;28;20453;-77
2022/06/09 11:49:43;;;;;;;13.30;2.73;;;;;;;;;;5112675;28;20445;-76
2022/06/09 11:52:15;;;;;;;14.00;2.53;;;;;;;;;;5112215;28;20443;-77
2022/06/09 11:54:44;;;;;;;15.00;2.53;;;;;;;;;;5112507;28;21044;-77
2022/06/09 11:57:25;;;;;;;14.50;3.20;;;;;;;;;;5112279;28;20444;-76
2022/06/09 11:59:53;;;;;;;14.13;3.37;;;;;;;;;;5112477;28;20448;-77
2022/06/09 12:02:27;;;;;;;14.87;2.80;;;;;;;;;;5111841;28;20462;-78
2022/06/09 12:05:25;;;;;;;12.90;2.20;;;;;;;;;;5112169;28;20833;-77
2022/06/09 12:08:18;;;;;;;13.60;2.40;;;;;;;;;;5029800;28;20444;-77
2022/06/09 12:10:56;;;;;;;14.67;2.47;;;;;;;;;;5107374;28;21009;-76
2022/06/09 12:13:24;;;;;;;28.00;3.37;;;;;;;;;;5111956;28;20965;-77
2022/06/09 12:15:53;;;;;;;12.77;2.20;;;;;;;;;;5112085;28;20564;-78
2022/06/09 12:18:35;;;;;;;13.20;2.90;;;;;;;;;;5112207;28;20438;-76
2022/06/09 12:21:10;;;;;;;13.00;2.47;;;;;;;;;;5108545;28;20458;-77
2022/06/09 12:23:40;;;;;;;12.30;2.17;;;;;;;;;;5114910;28;20558;-77
2022/06/09 12:26:34;;;;;;;12.70;2.50;;;;;;;;;;5116219;28;20441;-77
2022/06/09 12:29:03;;;;;;;13.00;2.50;;;;;;;;;;5057289;28;20444;-77
2022/06/09 12:31:35;;;;;;;15.23;2.20;;;;;;;;;;5116249;28;20462;-76
2022/06/09 12:34:04;;;;;;;15.27;2.53;;;;;;;;;;5116506;28;20444;-76
2022/06/09 12:36:38;;;;;;;12.43;2.23;;;;;;;;;;5116378;28;20428;-76
2022/06/09 12:39:14;;;;;;;15.97;3.23;;;;;;;;;;5115877;28;20446;-77
2022/06/09 12:41:44;;;;;;;18.53;2.40;;;;;;;;;;5116079;28;20453;-76
2022/06/09 12:44:22;;;;;;;12.63;2.50;;;;;;;;;;5115690;28;21030;-78
2022/06/09 12:46:53;;;;;;;14.03;2.27;;;;;;;;;;5115889;28;20950;-76
2022/06/09 13:00:47;;;;;;;13.27;2.70;;;;;;;;;;5089575;28;20565;-76
2022/06/09 13:03:16;;;;;;;13.60;2.50;;;;;;;;;;5089293;28;20457;-76
2022/06/09 13:05:43;;;;;;;14.10;2.60;;;;;;;;;;5089233;28;20435;-75
2022/06/09 13:08:19;;;;;;;12.70;1.90;;;;;;;;;;5088763;28;20449;-76
2022/06/09 13:10:48;;;;;;;14.50;2.10;;;;;;;;;;5089332;28;20981;-76
2022/06/09 13:13:18;;;;;;;12.03;2.10;;;;;;;;;;5089344;28;20488;-75
2022/06/09 13:15:49;;;;;;;16.17;2.30;;;;;;;;;;5088942;28;20958;-76
2022/06/09 13:18:17;;;;;;;15.13;3.07;;;;;;;;;;5088751;28;20445;-76
2022/06/09 13:20:49;;;;;;;13.03;2.43;;;;;;;;;;5088853;28;20949;-76
2022/06/09 13:23:16;;;;;;;15.70;2.23;;;;;;;;;;5089371;28;20516;-76
2022/06/09 13:25:45;;;;;;;12.97;2.53;;;;;;;;;;5089260;28;20819;-76
2022/06/09 13:28:25;;;;;;;14.93;2.20;;;;;;;;;;5088786;28;20422;-76
2022/06/09 13:30:55;;;;;;;14.27;2.00;;;;;;;;;;5088686;28;20452;-75
2022/06/09 13:33:27;;;;;;;13.00;2.10;;;;;;;;;;5088602;28;20442;-76
2022/06/09 13:35:56;;;;;;;16.17;2.60;;;;;;;;;;5088734;28;20437;-76
2022/06/09 13:38:26;;;;;;;15.87;2.70;;;;;;;;;;5087639;28;20449;-77
2022/06/09 13:40:55;;;;;;;15.90;2.57;;;;;;;;;;5087644;28;20446;-77
2022/06/09 13:43:30;;;;;;;13.80;2.20;;;;;;;;;;5087296;28;20445;-76
2022/06/09 13:46:06;;;;;;;12.10;2.10;;;;;;;;;;5087650;28;20444;-77
2022/06/09 13:48:41;;;;;;;13.90;2.50;;;;;;;;;;5087272;28;20489;-76
2022/06/09 13:51:11;;;;;;;14.27;2.50;;;;;;;;;;5087361;28;20441;-77
2022/06/09 13:53:40;;;;;;;19.13;2.27;;;;;;;;;;5087358;28;20821;-76
2022/06/09 13:56:10;;;;;;;13.07;2.13;;;;;;;;;;5087232;28;20458;-76
2022/06/09 13:58:37;;;;;;;13.53;2.57;;;;;;;;;;5086758;28;20840;-76
2022/06/09 14:01:07;;;;;;;14.10;2.27;;;;;;;;;;5077235;28;20957;-77
2022/06/09 14:03:38;;;;;;;13.83;2.60;;;;;;;;;;5073752;28;20438;-77
2022/06/09 14:06:06;;;;;;;13.47;2.40;;;;;;;;;;5073688;28;20455;-77
2022/06/09 14:08:35;;;;;;;13.57;2.60;;;;;;;;;;5073272;28;20482;-76
2022/06/09 14:11:03;;;;;;;13.67;2.77;;;;;;;;;;5073403;28;20446;-77
2022/06/09 14:13:30;;;;;;;14.80;2.10;;;;;;;;;;5073457;28;20820;-76
2022/06/09 14:15:58;;;;;;;12.40;2.30;;;;;;;;;;5073151;28;20449;-77
2022/06/09 14:18:28;;;;;;;12.50;2.10;;;;;;;;;;5073184;28;20440;-76
2022/06/09 14:20:57;;;;;;;12.60;2.10;;;;;;;;;;5073236;28;20453;-77
2022/06/09 14:23:25;;;;;;;14.50;2.37;;;;;;;;;;5073175;28;20453;-76
2022/06/09 14:25:58;;;;;;;12.63;1.87;;;;;;;;;;5073163;28;20447;-76
2022/06/09 14:28:25;;;;;;;14.30;2.83;;;;;;;;;;5073115;28;20630;-77
2022/06/09 14:30:53;;;;;;;12.80;1.87;;;;;;;;;;5073534;28;20434;-77
2022/06/09 14:33:20;;;;;;;15.67;2.77;;;;;;;;;;5073028;28;20445;-77
2022/06/09 14:35:50;;;;;;;14.60;1.87;;;;;;;;;;5072783;28;20429;-77
2022/06/09 14:38:18;;;;;;;13.10;2.30;;;;;;;;;;5073028;28;20447;-76
2022/06/09 14:40:50;;;;;;;14.90;2.70;;;;;;;;;;5072471;28;20455;-77
2022/06/09 14:43:17;;;;;;;12.40;2.30;;;;;;;;;;5073003;28;20470;-77
2022/06/09 14:45:46;;;;;;;12.73;2.27;;;;;;;;;;5072049;28;20449;-76
2022/06/09 14:48:15;;;;;;;13.17;2.50;;;;;;;;;;5071325;28;20461;-77
2022/06/09 14:50:42;;;;;;;14.10;2.20;;;;;;;;;;5071483;28;20488;-77
2022/06/09 14:53:14;;;;;;;12.60;2.10;;;;;;;;;;5071538;28;20455;-77
2022/06/09 14:55:42;;;;;;;14.67;2.70;;;;;;;;;;5069399;28;20856;-76
2022/06/09 14:58:12;;;;;;;13.70;2.07;;;;;;;;;;5071268;28;20970;-77
2022/06/09 15:00:39;;;;;;;13.50;2.37;;;;;;;;;;5069327;28;20464;-77
2022/06/09 15:03:07;;;;;;;13.07;2.47;;;;;;;;;;5071079;28;20440;-78
2022/06/09 15:05:35;;;;;;;14.40;2.40;;;;;;;;;;5071110;28;20449;-78
2022/06/09 15:08:02;;;;;;;12.63;2.37;;;;;;;;;;5071860;28;20451;-76
2022/06/09 15:10:33;;;;;;;12.50;2.07;;;;;;;;;;5072183;28;20523;-77
2022/06/09 15:13:01;;;;;;;13.10;2.20;;;;;;;;;;5071447;28;20448;-77
2022/06/09 15:15:29;;;;;;;12.60;2.20;;;;;;;;;;5070175;28;20454;-77
2022/06/09 15:17:56;;;;;;;14.80;2.97;;;;;;;;;;5069029;28;20969;-77
2022/06/09 15:20:25;;;;;;;15.50;3.40;;;;;;;;;;5071870;28;20952;-79
2022/06/09 15:22:52;;;;;;;15.97;3.40;;;;;;;;;;5071998;28;20976;-76
2022/06/09 15:25:20;;;;;;;12.63;2.10;;;;;;;;;;5071973;28;21008;-78
2022/06/09 15:27:49;;;;;;;14.00;2.23;;;;;;;;;;5072349;28;20450;-79
2022/06/09 15:30:18;;;;;;;12.83;2.30;;;;;;;;;;5071607;28;20482;-78
2022/06/09 15:32:46;;;;;;;13.00;2.20;;;;;;;;;;5072127;28;20435;-76
2022/06/09 15:35:13;;;;;;;14.83;2.70;;;;;;;;;;5070444;28;20447;-79